Alexandria, Pennsylvania
Current Conditions -  °F | °C
As of 7:53 AM on Saturday 25 Oct 2014 (Local Time) from KAOO Reporting Station
Overcast Overcast  
Wind Chill: 43°   Ceiling: 4300
Heat Index: 45°   Visibility: 10mi
Dew Point: 39°   Wind: 5mph
Humidity: 80%   Direction: 210°SSW
Pressure: 29.95"   Gusts: NA
Location:  40.56°N, 78.1°W
Report Text: KAOO 251153Z AUTO 21004KT 10SM OVC043 07/04 A2995 RMK AO2 SLP149 T00720039 10100 20061 55000
Loading
Personal Weather Stations






























Interactive Weather Map New forecast layout! Learn more

10-Day Weather Forecast

Advertisements
Track Severe Weather on mobile